sensor_id;sensor_type;location;lat;lon;timestamp;P1;durP1;ratioP1;P2;durP2;ratioP2
6452;SDS011;3259;51.080;13.712;2023-03-03T00:02:01;1.67;;;1.30;;
6452;SDS011;3259;51.080;13.712;2023-03-03T00:04:52;1.38;;;1.20;;
6452;SDS011;3259;51.080;13.712;2023-03-03T00:07:42;1.08;;;1.08;;
6452;SDS011;3259;51.080;13.712;2023-03-03T00:10:31;1.25;;;1.15;;
6452;SDS011;3259;51.080;13.712;2023-03-03T00:13:21;1.13;;;1.10;;
6452;SDS011;3259;51.080;13.712;2023-03-03T00:16:15;1.08;;;1.08;;
6452;SDS011;3259;51.080;13.712;2023-03-03T00:19:10;2.88;;;0.98;;
6452;SDS011;3259;51.080;13.712;2023-03-03T00:22:01;1.92;;;0.80;;
6452;SDS011;3259;51.080;13.712;2023-03-03T00:24:55;1.63;;;1.17;;
6452;SDS011;3259;51.080;13.712;2023-03-03T00:27:46;1.10;;;1.00;;
6452;SDS011;3259;51.080;13.712;2023-03-03T00:30:35;1.50;;;0.98;;
6452;SDS011;3259;51.080;13.712;2023-03-03T00:33:25;0.95;;;0.95;;
6452;SDS011;3259;51.080;13.712;2023-03-03T00:36:23;1.02;;;0.93;;
6452;SDS011;3259;51.080;13.712;2023-03-03T00:39:20;0.90;;;0.90;;
6452;SDS011;3259;51.080;13.712;2023-03-03T00:42:14;0.90;;;0.90;;
6452;SDS011;3259;51.080;13.712;2023-03-03T00:45:07;1.20;;;1.10;;
6452;SDS011;3259;51.080;13.712;2023-03-03T00:48:18;1.52;;;1.05;;
6452;SDS011;3259;51.080;13.712;2023-03-03T00:51:12;0.82;;;0.82;;
6452;SDS011;3259;51.080;13.712;2023-03-03T00:54:08;1.20;;;1.10;;
6452;SDS011;3259;51.080;13.712;2023-03-03T00:56:58;3.80;;;1.10;;
6452;SDS011;3259;51.080;13.712;2023-03-03T00:59:47;1.02;;;0.90;;
6452;SDS011;3259;51.080;13.712;2023-03-03T01:02:36;0.93;;;0.93;;
6452;SDS011;3259;51.080;13.712;2023-03-03T01:05:25;1.30;;;1.20;;
6452;SDS011;3259;51.080;13.712;2023-03-03T01:08:14;0.90;;;0.90;;
6452;SDS011;3259;51.080;13.712;2023-03-03T01:11:05;0.82;;;0.82;;
6452;SDS011;3259;51.080;13.712;2023-03-03T01:13:57;0.95;;;0.82;;
6452;SDS011;3259;51.080;13.712;2023-03-03T01:16:45;0.75;;;0.75;;
6452;SDS011;3259;51.080;13.712;2023-03-03T01:19:35;0.80;;;0.80;;
6452;SDS011;3259;51.080;13.712;2023-03-03T01:22:24;0.75;;;0.75;;
6452;SDS011;3259;51.080;13.712;2023-03-03T01:25:12;4.50;;;1.40;;
6452;SDS011;3259;51.080;13.712;2023-03-03T01:28:04;0.85;;;0.85;;
6452;SDS011;3259;51.080;13.712;2023-03-03T01:31:00;1.05;;;0.95;;
6452;SDS011;3259;51.080;13.712;2023-03-03T01:33:49;1.08;;;0.95;;
6452;SDS011;3259;51.080;13.712;2023-03-03T01:36:38;1.50;;;0.70;;
6452;SDS011;3259;51.080;13.712;2023-03-03T01:39:27;1.25;;;1.00;;
6452;SDS011;3259;51.080;13.712;2023-03-03T01:42:15;0.65;;;0.65;;
6452;SDS011;3259;51.080;13.712;2023-03-03T01:45:15;1.00;;;1.00;;
6452;SDS011;3259;51.080;13.712;2023-03-03T01:48:08;1.10;;;0.90;;
6452;SDS011;3259;51.080;13.712;2023-03-03T01:50:58;4.22;;;1.05;;
6452;SDS011;3259;51.080;13.712;2023-03-03T01:53:48;1.15;;;0.70;;
6452;SDS011;3259;51.080;13.712;2023-03-03T01:56:38;3.15;;;0.98;;
6452;SDS011;3259;51.080;13.712;2023-03-03T01:59:29;0.93;;;0.77;;
6452;SDS011;3259;51.080;13.712;2023-03-03T02:02:19;0.70;;;0.70;;
6452;SDS011;3259;51.080;13.712;2023-03-03T02:05:10;1.17;;;1.08;;
6452;SDS011;3259;51.080;13.712;2023-03-03T02:07:59;2.20;;;0.80;;
6452;SDS011;3259;51.080;13.712;2023-03-03T02:10:48;0.80;;;0.80;;
6452;SDS011;3259;51.080;13.712;2023-03-03T02:13:37;0.85;;;0.85;;
6452;SDS011;3259;51.080;13.712;2023-03-03T02:16:26;0.88;;;0.88;;
6452;SDS011;3259;51.080;13.712;2023-03-03T02:19:17;1.48;;;0.90;;
6452;SDS011;3259;51.080;13.712;2023-03-03T02:22:10;0.80;;;0.80;;
6452;SDS011;3259;51.080;13.712;2023-03-03T02:25:02;0.90;;;0.90;;
6452;SDS011;3259;51.080;13.712;2023-03-03T02:27:56;1.05;;;0.75;;
6452;SDS011;3259;51.080;13.712;2023-03-03T02:30:45;0.95;;;0.80;;
6452;SDS011;3259;51.080;13.712;2023-03-03T02:33:34;0.70;;;0.70;;
6452;SDS011;3259;51.080;13.712;2023-03-03T02:36:23;0.60;;;0.60;;
6452;SDS011;3259;51.080;13.712;2023-03-03T02:39:14;1.05;;;0.80;;
6452;SDS011;3259;51.080;13.712;2023-03-03T02:42:05;1.42;;;0.82;;
6452;SDS011;3259;51.080;13.712;2023-03-03T02:44:58;0.85;;;0.85;;
6452;SDS011;3259;51.080;13.712;2023-03-03T02:47:48;0.63;;;0.63;;
6452;SDS011;3259;51.080;13.712;2023-03-03T02:50:37;0.65;;;0.52;;
6452;SDS011;3259;51.080;13.712;2023-03-03T02:53:26;0.75;;;0.75;;
6452;SDS011;3259;51.080;13.712;2023-03-03T02:56:15;0.90;;;0.80;;
6452;SDS011;3259;51.080;13.712;2023-03-03T02:59:04;0.80;;;0.80;;
6452;SDS011;3259;51.080;13.712;2023-03-03T03:01:54;0.70;;;0.70;;
6452;SDS011;3259;51.080;13.712;2023-03-03T03:04:43;1.10;;;1.00;;
6452;SDS011;3259;51.080;13.712;2023-03-03T03:07:32;0.70;;;0.70;;
6452;SDS011;3259;51.080;13.712;2023-03-03T03:10:21;0.82;;;0.50;;
6452;SDS011;3259;51.080;13.712;2023-03-03T03:13:10;2.28;;;0.60;;
6452;SDS011;3259;51.080;13.712;2023-03-03T03:15:59;1.00;;;0.88;;
6452;SDS011;3259;51.080;13.712;2023-03-03T03:18:49;0.90;;;0.63;;
6452;SDS011;3259;51.080;13.712;2023-03-03T03:21:38;1.17;;;0.70;;
6452;SDS011;3259;51.080;13.712;2023-03-03T03:24:26;1.40;;;0.60;;
6452;SDS011;3259;51.080;13.712;2023-03-03T03:27:15;1.15;;;0.50;;
6452;SDS011;3259;51.080;13.712;2023-03-03T03:30:05;0.60;;;0.60;;
6452;SDS011;3259;51.080;13.712;2023-03-03T03:32:55;2.92;;;0.80;;
6452;SDS011;3259;51.080;13.712;2023-03-03T03:35:45;0.85;;;0.60;;
6452;SDS011;3259;51.080;13.712;2023-03-03T03:38:34;0.77;;;0.77;;
6452;SDS011;3259;51.080;13.712;2023-03-03T03:41:23;0.85;;;0.80;;
6452;SDS011;3259;51.080;13.712;2023-03-03T03:44:12;0.98;;;0.90;;
6452;SDS011;3259;51.080;13.712;2023-03-03T03:47:01;0.50;;;0.50;;
6452;SDS011;3259;51.080;13.712;2023-03-03T03:49:49;0.65;;;0.65;;
6452;SDS011;3259;51.080;13.712;2023-03-03T03:52:39;1.30;;;0.65;;
6452;SDS011;3259;51.080;13.712;2023-03-03T03:55:29;0.68;;;0.68;;
6452;SDS011;3259;51.080;13.712;2023-03-03T03:58:17;0.98;;;0.98;;
6452;SDS011;3259;51.080;13.712;2023-03-03T04:01:06;1.52;;;0.70;;
6452;SDS011;3259;51.080;13.712;2023-03-03T04:03:55;0.63;;;0.57;;
6452;SDS011;3259;51.080;13.712;2023-03-03T04:06:44;0.40;;;0.40;;
6452;SDS011;3259;51.080;13.712;2023-03-03T04:09:34;0.93;;;0.60;;
6452;SDS011;3259;51.080;13.712;2023-03-03T04:12:23;0.65;;;0.65;;
6452;SDS011;3259;51.080;13.712;2023-03-03T04:15:12;1.52;;;0.63;;
6452;SDS011;3259;51.080;13.712;2023-03-03T04:18:02;0.93;;;0.88;;
6452;SDS011;3259;51.080;13.712;2023-03-03T04:20:51;0.57;;;0.57;;
6452;SDS011;3259;51.080;13.712;2023-03-03T04:23:40;2.65;;;0.70;;
6452;SDS011;3259;51.080;13.712;2023-03-03T04:26:30;0.60;;;0.60;;
6452;SDS011;3259;51.080;13.712;2023-03-03T04:29:19;0.40;;;0.40;;
6452;SDS011;3259;51.080;13.712;2023-03-03T04:32:07;1.10;;;0.63;;
6452;SDS011;3259;51.080;13.712;2023-03-03T04:34:56;0.50;;;0.50;;
6452;SDS011;3259;51.080;13.712;2023-03-03T04:37:54;0.80;;;0.80;;
6452;SDS011;3259;51.080;13.712;2023-03-03T04:40:42;1.08;;;0.60;;
6452;SDS011;3259;51.080;13.712;2023-03-03T04:43:32;0.55;;;0.55;;
6452;SDS011;3259;51.080;13.712;2023-03-03T04:46:21;2.75;;;0.52;;
6452;SDS011;3259;51.080;13.712;2023-03-03T04:49:10;1.23;;;0.60;;
6452;SDS011;3259;51.080;13.712;2023-03-03T04:51:59;1.48;;;0.63;;
6452;SDS011;3259;51.080;13.712;2023-03-03T04:54:47;1.88;;;0.50;;
6452;SDS011;3259;51.080;13.712;2023-03-03T04:57:36;0.57;;;0.57;;
6452;SDS011;3259;51.080;13.712;2023-03-03T05:00:26;0.60;;;0.60;;
6452;SDS011;3259;51.080;13.712;2023-03-03T05:03:15;0.70;;;0.70;;
6452;SDS011;3259;51.080;13.712;2023-03-03T05:06:03;0.60;;;0.60;;
6452;SDS011;3259;51.080;13.712;2023-03-03T05:08:52;2.40;;;1.13;;
6452;SDS011;3259;51.080;13.712;2023-03-03T05:11:41;0.47;;;0.47;;
6452;SDS011;3259;51.080;13.712;2023-03-03T05:14:30;0.68;;;0.68;;
6452;SDS011;3259;51.080;13.712;2023-03-03T05:17:20;0.90;;;0.90;;
6452;SDS011;3259;51.080;13.712;2023-03-03T05:20:09;1.27;;;0.73;;
6452;SDS011;3259;51.080;13.712;2023-03-03T05:22:59;1.58;;;0.90;;
6452;SDS011;3259;51.080;13.712;2023-03-03T05:25:48;11.27;;;1.48;;
6452;SDS011;3259;51.080;13.712;2023-03-03T05:28:37;1.88;;;0.70;;
6452;SDS011;3259;51.080;13.712;2023-03-03T05:31:26;0.70;;;0.70;;
6452;SDS011;3259;51.080;13.712;2023-03-03T05:34:16;0.38;;;0.30;;
6452;SDS011;3259;51.080;13.712;2023-03-03T05:37:05;1.77;;;0.70;;
6452;SDS011;3259;51.080;13.712;2023-03-03T05:39:53;2.50;;;0.77;;
6452;SDS011;3259;51.080;13.712;2023-03-03T05:42:42;2.25;;;0.60;;
6452;SDS011;3259;51.080;13.712;2023-03-03T05:45:31;0.52;;;0.52;;
6452;SDS011;3259;51.080;13.712;2023-03-03T05:48:22;0.55;;;0.45;;
6452;SDS011;3259;51.080;13.712;2023-03-03T05:51:12;3.38;;;0.80;;
6452;SDS011;3259;51.080;13.712;2023-03-03T05:54:00;1.73;;;1.13;;
6452;SDS011;3259;51.080;13.712;2023-03-03T05:56:49;1.02;;;0.63;;
6452;SDS011;3259;51.080;13.712;2023-03-03T05:59:37;1.77;;;0.90;;
6452;SDS011;3259;51.080;13.712;2023-03-03T06:02:26;1.35;;;0.88;;
6452;SDS011;3259;51.080;13.712;2023-03-03T06:05:15;3.10;;;1.00;;
6452;SDS011;3259;51.080;13.712;2023-03-03T06:08:05;1.38;;;0.90;;
6452;SDS011;3259;51.080;13.712;2023-03-03T06:10:54;0.68;;;0.50;;
6452;SDS011;3259;51.080;13.712;2023-03-03T06:13:42;1.98;;;0.73;;
6452;SDS011;3259;51.080;13.712;2023-03-03T06:16:31;1.55;;;0.95;;
6452;SDS011;3259;51.080;13.712;2023-03-03T06:19:20;1.50;;;0.90;;
6452;SDS011;3259;51.080;13.712;2023-03-03T06:22:09;4.47;;;0.90;;
6452;SDS011;3259;51.080;13.712;2023-03-03T06:24:59;1.05;;;0.80;;
6452;SDS011;3259;51.080;13.712;2023-03-03T06:27:47;5.05;;;1.10;;
6452;SDS011;3259;51.080;13.712;2023-03-03T06:30:36;1.02;;;0.90;;
6452;SDS011;3259;51.080;13.712;2023-03-03T06:33:24;1.27;;;1.02;;
6452;SDS011;3259;51.080;13.712;2023-03-03T06:36:13;2.67;;;1.77;;
6452;SDS011;3259;51.080;13.712;2023-03-03T06:39:02;3.97;;;1.95;;
6452;SDS011;3259;51.080;13.712;2023-03-03T06:41:52;4.03;;;1.48;;
6452;SDS011;3259;51.080;13.712;2023-03-03T06:44:41;4.90;;;1.60;;
6452;SDS011;3259;51.080;13.712;2023-03-03T06:47:30;1.98;;;1.23;;
6452;SDS011;3259;51.080;13.712;2023-03-03T06:50:19;2.67;;;1.35;;
6452;SDS011;3259;51.080;13.712;2023-03-03T06:53:10;6.50;;;1.13;;
6452;SDS011;3259;51.080;13.712;2023-03-03T06:55:59;3.03;;;1.33;;
6452;SDS011;3259;51.080;13.712;2023-03-03T06:58:50;3.58;;;1.20;;
6452;SDS011;3259;51.080;13.712;2023-03-03T07:01:41;2.15;;;1.02;;
6452;SDS011;3259;51.080;13.712;2023-03-03T07:04:32;2.00;;;1.30;;
6452;SDS011;3259;51.080;13.712;2023-03-03T07:07:22;1.80;;;0.95;;
6452;SDS011;3259;51.080;13.712;2023-03-03T07:10:15;2.45;;;1.60;;
6452;SDS011;3259;51.080;13.712;2023-03-03T07:13:18;1.10;;;0.90;;
6452;SDS011;3259;51.080;13.712;2023-03-03T07:16:10;0.65;;;0.63;;
6452;SDS011;3259;51.080;13.712;2023-03-03T07:19:00;2.00;;;1.05;;
6452;SDS011;3259;51.080;13.712;2023-03-03T07:21:51;0.80;;;0.80;;
6452;SDS011;3259;51.080;13.712;2023-03-03T07:24:39;1.80;;;0.77;;
6452;SDS011;3259;51.080;13.712;2023-03-03T07:27:29;1.50;;;1.00;;
6452;SDS011;3259;51.080;13.712;2023-03-03T07:30:21;2.80;;;1.10;;
6452;SDS011;3259;51.080;13.712;2023-03-03T07:33:17;14.00;;;3.22;;
6452;SDS011;3259;51.080;13.712;2023-03-03T07:36:17;9.00;;;4.00;;
6452;SDS011;3259;51.080;13.712;2023-03-03T07:39:17;8.93;;;4.20;;
6452;SDS011;3259;51.080;13.712;2023-03-03T07:42:14;7.35;;;3.60;;
6452;SDS011;3259;51.080;13.712;2023-03-03T07:45:19;4.57;;;3.72;;
6452;SDS011;3259;51.080;13.712;2023-03-03T07:48:16;7.35;;;3.78;;
6452;SDS011;3259;51.080;13.712;2023-03-03T07:51:11;5.93;;;4.50;;
6452;SDS011;3259;51.080;13.712;2023-03-03T07:54:11;6.65;;;4.32;;
6452;SDS011;3259;51.080;13.712;2023-03-03T07:57:11;5.65;;;4.05;;
6452;SDS011;3259;51.080;13.712;2023-03-03T08:00:42;5.82;;;4.13;;
6452;SDS011;3259;51.080;13.712;2023-03-03T08:03:38;8.00;;;4.70;;
6452;SDS011;3259;51.080;13.712;2023-03-03T08:06:35;4.72;;;3.92;;
6452;SDS011;3259;51.080;13.712;2023-03-03T08:09:34;4.40;;;3.03;;
6452;SDS011;3259;51.080;13.712;2023-03-03T08:12:28;3.97;;;2.97;;
6452;SDS011;3259;51.080;13.712;2023-03-03T08:15:21;5.70;;;3.28;;
6452;SDS011;3259;51.080;13.712;2023-03-03T08:18:15;4.30;;;3.10;;
6452;SDS011;3259;51.080;13.712;2023-03-03T08:21:13;4.72;;;3.00;;
6452;SDS011;3259;51.080;13.712;2023-03-03T08:24:02;3.13;;;2.42;;
6452;SDS011;3259;51.080;13.712;2023-03-03T08:26:51;2.47;;;2.00;;
6452;SDS011;3259;51.080;13.712;2023-03-03T08:29:40;3.95;;;2.53;;
6452;SDS011;3259;51.080;13.712;2023-03-03T08:32:28;2.90;;;2.13;;
6452;SDS011;3259;51.080;13.712;2023-03-03T08:35:17;2.40;;;2.20;;
6452;SDS011;3259;51.080;13.712;2023-03-03T08:38:07;3.55;;;2.35;;
6452;SDS011;3259;51.080;13.712;2023-03-03T08:40:57;3.47;;;1.95;;
6452;SDS011;3259;51.080;13.712;2023-03-03T08:43:45;3.42;;;2.35;;
6452;SDS011;3259;51.080;13.712;2023-03-03T08:46:34;2.90;;;1.95;;
6452;SDS011;3259;51.080;13.712;2023-03-03T08:49:23;2.63;;;2.00;;
6452;SDS011;3259;51.080;13.712;2023-03-03T08:52:11;3.67;;;1.75;;
6452;SDS011;3259;51.080;13.712;2023-03-03T08:55:01;2.63;;;1.77;;
6452;SDS011;3259;51.080;13.712;2023-03-03T08:57:52;1.90;;;1.45;;
6452;SDS011;3259;51.080;13.712;2023-03-03T09:00:41;1.70;;;1.60;;
6452;SDS011;3259;51.080;13.712;2023-03-03T09:03:32;1.75;;;1.27;;
6452;SDS011;3259;51.080;13.712;2023-03-03T09:06:20;2.25;;;0.73;;
6452;SDS011;3259;51.080;13.712;2023-03-03T09:09:09;1.05;;;1.00;;
6452;SDS011;3259;51.080;13.712;2023-03-03T09:12:00;1.95;;;1.30;;
6452;SDS011;3259;51.080;13.712;2023-03-03T09:14:53;1.20;;;1.10;;
6452;SDS011;3259;51.080;13.712;2023-03-03T09:17:43;1.40;;;1.30;;
6452;SDS011;3259;51.080;13.712;2023-03-03T09:20:34;2.92;;;1.60;;
6452;SDS011;3259;51.080;13.712;2023-03-03T09:23:28;1.85;;;1.35;;
6452;SDS011;3259;51.080;13.712;2023-03-03T09:26:22;5.55;;;1.20;;
6452;SDS011;3259;51.080;13.712;2023-03-03T09:29:22;1.85;;;1.33;;
6452;SDS011;3259;51.080;13.712;2023-03-03T09:32:19;1.40;;;1.15;;
6452;SDS011;3259;51.080;13.712;2023-03-03T09:38:24;0.85;;;0.85;;
6452;SDS011;3259;51.080;13.712;2023-03-03T09:41:24;2.55;;;1.10;;
6452;SDS011;3259;51.080;13.712;2023-03-03T09:47:58;0.75;;;0.75;;
6452;SDS011;3259;51.080;13.712;2023-03-03T09:51:10;0.80;;;0.80;;
6452;SDS011;3259;51.080;13.712;2023-03-03T09:54:07;1.80;;;1.00;;
6452;SDS011;3259;51.080;13.712;2023-03-03T09:57:03;1.15;;;0.93;;
6452;SDS011;3259;51.080;13.712;2023-03-03T10:06:33;2.92;;;1.08;;
6452;SDS011;3259;51.080;13.712;2023-03-03T10:09:31;0.70;;;0.70;;
6452;SDS011;3259;51.080;13.712;2023-03-03T10:12:26;0.82;;;0.82;;
6452;SDS011;3259;51.080;13.712;2023-03-03T10:15:19;0.70;;;0.57;;
6452;SDS011;3259;51.080;13.712;2023-03-03T10:18:17;1.98;;;0.85;;
6452;SDS011;3259;51.080;13.712;2023-03-03T10:21:13;2.67;;;0.82;;
6452;SDS011;3259;51.080;13.712;2023-03-03T10:24:08;0.75;;;0.75;;
6452;SDS011;3259;51.080;13.712;2023-03-03T10:27:04;0.60;;;0.60;;
6452;SDS011;3259;51.080;13.712;2023-03-03T10:30:02;0.70;;;0.70;;
6452;SDS011;3259;51.080;13.712;2023-03-03T10:32:57;0.70;;;0.70;;
6452;SDS011;3259;51.080;13.712;2023-03-03T10:39:10;1.75;;;1.38;;
6452;SDS011;3259;51.080;13.712;2023-03-03T10:45:39;0.43;;;0.43;;
6452;SDS011;3259;51.080;13.712;2023-03-03T10:48:53;0.55;;;0.52;;
6452;SDS011;3259;51.080;13.712;2023-03-03T10:52:13;0.77;;;0.60;;
6452;SDS011;3259;51.080;13.712;2023-03-03T10:55:26;0.80;;;0.80;;
6452;SDS011;3259;51.080;13.712;2023-03-03T10:58:28;0.70;;;0.50;;
6452;SDS011;3259;51.080;13.712;2023-03-03T11:01:27;0.50;;;0.50;;
6452;SDS011;3259;51.080;13.712;2023-03-03T11:04:31;0.60;;;0.60;;
6452;SDS011;3259;51.080;13.712;2023-03-03T11:07:33;1.33;;;0.80;;
6452;SDS011;3259;51.080;13.712;2023-03-03T11:10:27;0.52;;;0.52;;
6452;SDS011;3259;51.080;13.712;2023-03-03T11:13:22;0.75;;;0.40;;
6452;SDS011;3259;51.080;13.712;2023-03-03T11:16:19;0.77;;;0.60;;
6452;SDS011;3259;51.080;13.712;2023-03-03T11:19:25;0.50;;;0.50;;
6452;SDS011;3259;51.080;13.712;2023-03-03T11:22:24;4.90;;;0.30;;
6452;SDS011;3259;51.080;13.712;2023-03-03T11:25:23;0.50;;;0.50;;
6452;SDS011;3259;51.080;13.712;2023-03-03T11:28:18;0.40;;;0.30;;
6452;SDS011;3259;51.080;13.712;2023-03-03T11:31:20;0.75;;;0.52;;
6452;SDS011;3259;51.080;13.712;2023-03-03T11:34:20;0.50;;;0.45;;
6452;SDS011;3259;51.080;13.712;2023-03-03T11:37:23;0.40;;;0.40;;
6452;SDS011;3259;51.080;13.712;2023-03-03T11:40:16;0.40;;;0.40;;
6452;SDS011;3259;51.080;13.712;2023-03-03T11:43:09;0.60;;;0.45;;
6452;SDS011;3259;51.080;13.712;2023-03-03T11:46:22;0.40;;;0.40;;
6452;SDS011;3259;51.080;13.712;2023-03-03T11:49:15;0.47;;;0.47;;
6452;SDS011;3259;51.080;13.712;2023-03-03T11:52:17;0.45;;;0.45;;
6452;SDS011;3259;51.080;13.712;2023-03-03T11:55:11;0.30;;;0.30;;
6452;SDS011;3259;51.080;13.712;2023-03-03T11:58:07;0.43;;;0.43;;
6452;SDS011;3259;51.080;13.712;2023-03-03T12:01:13;0.55;;;0.55;;
6452;SDS011;3259;51.080;13.712;2023-03-03T12:04:06;0.65;;;0.40;;
6452;SDS011;3259;51.080;13.712;2023-03-03T12:07:04;0.47;;;0.38;;
6452;SDS011;3259;51.080;13.712;2023-03-03T12:10:10;0.50;;;0.50;;
6452;SDS011;3259;51.080;13.712;2023-03-03T12:13:04;0.50;;;0.50;;
6452;SDS011;3259;51.080;13.712;2023-03-03T12:15:54;0.30;;;0.30;;
6452;SDS011;3259;51.080;13.712;2023-03-03T12:18:51;0.30;;;0.30;;
6452;SDS011;3259;51.080;13.712;2023-03-03T12:21:46;1.50;;;0.60;;
6452;SDS011;3259;51.080;13.712;2023-03-03T12:24:45;0.40;;;0.40;;
6452;SDS011;3259;51.080;13.712;2023-03-03T12:27:46;0.22;;;0.22;;
6452;SDS011;3259;51.080;13.712;2023-03-03T12:30:44;0.38;;;0.38;;
6452;SDS011;3259;51.080;13.712;2023-03-03T12:36:54;0.25;;;0.25;;
6452;SDS011;3259;51.080;13.712;2023-03-03T12:39:54;0.57;;;0.30;;
6452;SDS011;3259;51.080;13.712;2023-03-03T12:42:55;0.20;;;0.20;;
6452;SDS011;3259;51.080;13.712;2023-03-03T12:45:54;1.17;;;0.30;;
6452;SDS011;3259;51.080;13.712;2023-03-03T12:48:45;0.52;;;0.32;;
6452;SDS011;3259;51.080;13.712;2023-03-03T12:51:37;0.43;;;0.43;;
6452;SDS011;3259;51.080;13.712;2023-03-03T12:54:33;0.25;;;0.25;;
6452;SDS011;3259;51.080;13.712;2023-03-03T12:57:38;0.17;;;0.17;;
6452;SDS011;3259;51.080;13.712;2023-03-03T13:00:35;0.20;;;0.20;;
6452;SDS011;3259;51.080;13.712;2023-03-03T13:03:34;0.20;;;0.20;;
6452;SDS011;3259;51.080;13.712;2023-03-03T13:06:41;0.30;;;0.30;;
6452;SDS011;3259;51.080;13.712;2023-03-03T13:09:36;1.85;;;0.50;;
6452;SDS011;3259;51.080;13.712;2023-03-03T13:12:33;0.20;;;0.20;;
6452;SDS011;3259;51.080;13.712;2023-03-03T13:15:27;0.30;;;0.28;;
6452;SDS011;3259;51.080;13.712;2023-03-03T13:18:27;0.35;;;0.35;;
6452;SDS011;3259;51.080;13.712;2023-03-03T13:21:19;0.45;;;0.10;;
6452;SDS011;3259;51.080;13.712;2023-03-03T13:24:12;0.75;;;0.20;;
6452;SDS011;3259;51.080;13.712;2023-03-03T13:27:06;0.30;;;0.30;;
6452;SDS011;3259;51.080;13.712;2023-03-03T13:29:58;0.20;;;0.20;;
6452;SDS011;3259;51.080;13.712;2023-03-03T13:32:50;0.20;;;0.20;;
6452;SDS011;3259;51.080;13.712;2023-03-03T13:35:43;0.30;;;0.30;;
6452;SDS011;3259;51.080;13.712;2023-03-03T13:38:34;0.20;;;0.20;;
6452;SDS011;3259;51.080;13.712;2023-03-03T13:41:28;0.50;;;0.32;;
6452;SDS011;3259;51.080;13.712;2023-03-03T13:44:22;0.90;;;0.65;;
6452;SDS011;3259;51.080;13.712;2023-03-03T13:47:13;4.53;;;0.63;;
6452;SDS011;3259;51.080;13.712;2023-03-03T13:50:10;3.30;;;0.93;;
6452;SDS011;3259;51.080;13.712;2023-03-03T13:56:31;1.13;;;1.02;;
6452;SDS011;3259;51.080;13.712;2023-03-03T13:59:27;1.67;;;1.38;;
6452;SDS011;3259;51.080;13.712;2023-03-03T14:02:33;0.88;;;0.88;;
6452;SDS011;3259;51.080;13.712;2023-03-03T14:05:33;1.35;;;1.25;;
6452;SDS011;3259;51.080;13.712;2023-03-03T14:08:29;2.50;;;1.02;;
6452;SDS011;3259;51.080;13.712;2023-03-03T14:11:29;2.65;;;1.27;;
6452;SDS011;3259;51.080;13.712;2023-03-03T14:14:24;1.10;;;1.02;;
6452;SDS011;3259;51.080;13.712;2023-03-03T14:17:24;1.20;;;1.10;;
6452;SDS011;3259;51.080;13.712;2023-03-03T14:20:18;1.20;;;1.10;;
6452;SDS011;3259;51.080;13.712;2023-03-03T14:23:11;1.30;;;1.30;;
6452;SDS011;3259;51.080;13.712;2023-03-03T14:26:07;1.10;;;1.10;;
6452;SDS011;3259;51.080;13.712;2023-03-03T14:29:04;1.42;;;1.30;;
6452;SDS011;3259;51.080;13.712;2023-03-03T14:32:19;4.13;;;1.70;;
6452;SDS011;3259;51.080;13.712;2023-03-03T14:35:21;1.63;;;1.52;;
6452;SDS011;3259;51.080;13.712;2023-03-03T14:38:12;2.03;;;1.92;;
6452;SDS011;3259;51.080;13.712;2023-03-03T14:41:03;2.15;;;1.25;;
6452;SDS011;3259;51.080;13.712;2023-03-03T14:43:59;1.35;;;1.25;;
6452;SDS011;3259;51.080;13.712;2023-03-03T14:46:59;1.52;;;1.42;;
6452;SDS011;3259;51.080;13.712;2023-03-03T14:49:51;1.65;;;1.55;;
6452;SDS011;3259;51.080;13.712;2023-03-03T14:52:41;2.05;;;1.80;;
6452;SDS011;3259;51.080;13.712;2023-03-03T14:55:31;1.48;;;1.35;;
6452;SDS011;3259;51.080;13.712;2023-03-03T14:58:27;1.27;;;1.27;;
6452;SDS011;3259;51.080;13.712;2023-03-03T15:01:21;1.40;;;1.30;;
6452;SDS011;3259;51.080;13.712;2023-03-03T15:04:22;0.77;;;0.77;;
6452;SDS011;3259;51.080;13.712;2023-03-03T15:07:15;1.83;;;1.38;;
6452;SDS011;3259;51.080;13.712;2023-03-03T15:10:10;2.05;;;0.80;;
6452;SDS011;3259;51.080;13.712;2023-03-03T15:13:11;1.08;;;0.80;;
6452;SDS011;3259;51.080;13.712;2023-03-03T15:16:19;0.93;;;0.80;;
6452;SDS011;3259;51.080;13.712;2023-03-03T15:19:23;0.95;;;0.90;;
6452;SDS011;3259;51.080;13.712;2023-03-03T15:22:32;3.05;;;1.00;;
6452;SDS011;3259;51.080;13.712;2023-03-03T15:25:27;2.22;;;0.90;;
6452;SDS011;3259;51.080;13.712;2023-03-03T15:28:34;0.70;;;0.70;;
6452;SDS011;3259;51.080;13.712;2023-03-03T15:31:28;3.25;;;0.88;;
6452;SDS011;3259;51.080;13.712;2023-03-03T15:34:25;0.50;;;0.50;;
6452;SDS011;3259;51.080;13.712;2023-03-03T15:37:21;2.75;;;0.80;;
6452;SDS011;3259;51.080;13.712;2023-03-03T15:40:16;0.77;;;0.77;;
6452;SDS011;3259;51.080;13.712;2023-03-03T15:43:12;0.85;;;0.85;;
6452;SDS011;3259;51.080;13.712;2023-03-03T15:46:13;0.60;;;0.57;;
6452;SDS011;3259;51.080;13.712;2023-03-03T15:49:11;0.63;;;0.50;;
6452;SDS011;3259;51.080;13.712;2023-03-03T15:52:06;0.82;;;0.40;;
6452;SDS011;3259;51.080;13.712;2023-03-03T15:55:12;0.40;;;0.40;;
6452;SDS011;3259;51.080;13.712;2023-03-03T15:58:16;2.30;;;0.70;;
6452;SDS011;3259;51.080;13.712;2023-03-03T16:01:22;0.55;;;0.30;;
6452;SDS011;3259;51.080;13.712;2023-03-03T16:04:16;0.60;;;0.60;;
6452;SDS011;3259;51.080;13.712;2023-03-03T16:07:08;0.98;;;0.60;;
6452;SDS011;3259;51.080;13.712;2023-03-03T16:10:07;1.48;;;0.60;;
6452;SDS011;3259;51.080;13.712;2023-03-03T16:13:07;2.33;;;0.60;;
6452;SDS011;3259;51.080;13.712;2023-03-03T16:16:09;0.52;;;0.50;;
6452;SDS011;3259;51.080;13.712;2023-03-03T16:19:12;0.47;;;0.47;;
6452;SDS011;3259;51.080;13.712;2023-03-03T16:22:22;6.05;;;0.43;;
6452;SDS011;3259;51.080;13.712;2023-03-03T16:25:37;4.75;;;0.60;;
6452;SDS011;3259;51.080;13.712;2023-03-03T16:28:37;1.80;;;0.47;;
6452;SDS011;3259;51.080;13.712;2023-03-03T16:31:32;1.00;;;0.55;;
6452;SDS011;3259;51.080;13.712;2023-03-03T16:34:25;2.63;;;0.50;;
6452;SDS011;3259;51.080;13.712;2023-03-03T16:37:20;1.75;;;0.50;;
6452;SDS011;3259;51.080;13.712;2023-03-03T16:40:13;1.17;;;0.63;;
6452;SDS011;3259;51.080;13.712;2023-03-03T16:43:10;1.45;;;0.55;;
6452;SDS011;3259;51.080;13.712;2023-03-03T16:46:08;1.83;;;0.43;;
6452;SDS011;3259;51.080;13.712;2023-03-03T16:49:06;1.58;;;0.50;;
6452;SDS011;3259;51.080;13.712;2023-03-03T16:51:58;1.08;;;0.50;;
6452;SDS011;3259;51.080;13.712;2023-03-03T16:54:52;4.18;;;0.95;;
6452;SDS011;3259;51.080;13.712;2023-03-03T16:57:45;1.02;;;0.63;;
6452;SDS011;3259;51.080;13.712;2023-03-03T17:00:42;2.05;;;0.57;;
6452;SDS011;3259;51.080;13.712;2023-03-03T17:03:45;3.35;;;0.90;;
6452;SDS011;3259;51.080;13.712;2023-03-03T17:06:44;1.85;;;1.40;;
6452;SDS011;3259;51.080;13.712;2023-03-03T17:13:01;9.23;;;3.17;;
6452;SDS011;3259;51.080;13.712;2023-03-03T17:16:01;15.73;;;5.07;;
6452;SDS011;3259;51.080;13.712;2023-03-03T17:18:55;14.13;;;7.00;;
6452;SDS011;3259;51.080;13.712;2023-03-03T17:21:54;22.80;;;9.70;;
6452;SDS011;3259;51.080;13.712;2023-03-03T17:25:00;29.08;;;10.43;;
6452;SDS011;3259;51.080;13.712;2023-03-03T17:28:03;31.58;;;12.05;;
6452;SDS011;3259;51.080;13.712;2023-03-03T17:30:57;33.00;;;13.88;;
6452;SDS011;3259;51.080;13.712;2023-03-03T17:33:57;42.03;;;14.82;;
6452;SDS011;3259;51.080;13.712;2023-03-03T17:36:58;33.13;;;16.38;;
6452;SDS011;3259;51.080;13.712;2023-03-03T17:43:05;46.08;;;20.73;;
6452;SDS011;3259;51.080;13.712;2023-03-03T17:45:59;42.40;;;21.40;;
6452;SDS011;3259;51.080;13.712;2023-03-03T17:48:56;55.40;;;23.80;;
6452;SDS011;3259;51.080;13.712;2023-03-03T17:55:11;49.00;;;24.77;;
6452;SDS011;3259;51.080;13.712;2023-03-03T17:58:16;41.38;;;23.08;;
6452;SDS011;3259;51.080;13.712;2023-03-03T18:01:29;44.35;;;22.98;;
6452;SDS011;3259;51.080;13.712;2023-03-03T18:04:38;42.95;;;23.52;;
6452;SDS011;3259;51.080;13.712;2023-03-03T18:07:39;38.55;;;22.20;;
6452;SDS011;3259;51.080;13.712;2023-03-03T18:10:45;44.25;;;23.77;;
6452;SDS011;3259;51.080;13.712;2023-03-03T18:17:10;42.03;;;21.98;;
6452;SDS011;3259;51.080;13.712;2023-03-03T18:20:10;35.10;;;20.23;;
6452;SDS011;3259;51.080;13.712;2023-03-03T18:23:22;35.03;;;19.85;;
6452;SDS011;3259;51.080;13.712;2023-03-03T18:26:37;38.15;;;19.90;;